createdAt,value
2017-12-29T00:02:01.949Z,99.90
2017-12-29T00:04:29.897Z,99.90
2017-12-29T00:06:57.789Z,99.90
2017-12-29T00:09:25.743Z,99.90
2017-12-29T00:11:53.653Z,99.90
2017-12-29T00:14:22.812Z,99.90
2017-12-29T00:16:50.973Z,99.90
2017-12-29T00:19:18.921Z,99.90
2017-12-29T00:21:46.825Z,99.90
2017-12-29T00:24:14.778Z,99.90
2017-12-29T00:26:46.750Z,99.90
2017-12-29T00:29:14.694Z,99.90
2017-12-29T00:31:42.593Z,99.90
2017-12-29T00:34:10.525Z,99.90
2017-12-29T00:36:38.529Z,99.90
2017-12-29T00:39:07.280Z,99.90
2017-12-29T00:41:35.402Z,99.90
2017-12-29T00:44:03.402Z,99.90
2017-12-29T00:46:32.726Z,99.90
2017-12-29T00:49:00.746Z,99.90
2017-12-29T00:51:28.668Z,99.90
2017-12-29T00:53:57.498Z,99.90
2017-12-29T00:56:26.480Z,99.90
2017-12-29T00:58:56.523Z,99.90
2017-12-29T01:01:24.612Z,99.90
2017-12-29T01:03:53.590Z,99.90
2017-12-29T01:06:21.532Z,99.90
2017-12-29T01:08:49.555Z,99.90
2017-12-29T01:11:17.440Z,99.90
2017-12-29T01:13:45.363Z,99.90
2017-12-29T01:16:13.514Z,99.90
2017-12-29T01:18:41.544Z,99.90
2017-12-29T01:21:09.434Z,99.90
2017-12-29T01:23:37.445Z,99.90
2017-12-29T01:26:05.347Z,99.90
2017-12-29T01:28:33.272Z,99.90
2017-12-29T01:31:02.983Z,99.90
2017-12-29T01:33:32.971Z,99.90
2017-12-29T01:36:01.395Z,99.90
2017-12-29T01:38:30.301Z,99.90
2017-12-29T01:40:58.674Z,99.90
2017-12-29T01:43:27.369Z,99.90
2017-12-29T01:45:55.779Z,99.90
2017-12-29T01:48:25.998Z,99.90
2017-12-29T01:50:55.217Z,99.90
2017-12-29T01:53:23.415Z,99.90
2017-12-29T01:55:53.424Z,99.90
2017-12-29T01:58:22.232Z,99.90
2017-12-29T02:00:50.161Z,99.90
2017-12-29T02:03:18.532Z,99.90
2017-12-29T02:05:48.479Z,99.90
2017-12-29T02:08:16.366Z,99.90
2017-12-29T02:10:44.313Z,99.90
2017-12-29T02:13:12.196Z,99.90
2017-12-29T02:15:40.124Z,99.90
2017-12-29T02:18:08.038Z,99.90
2017-12-29T02:20:35.995Z,99.90
2017-12-29T02:23:03.885Z,99.90
2017-12-29T02:25:31.826Z,99.90
2017-12-29T02:27:59.731Z,99.90
2017-12-29T02:30:27.692Z,99.90
2017-12-29T02:32:55.579Z,99.90
2017-12-29T02:35:23.533Z,99.90
2017-12-29T02:37:52.549Z,99.90
2017-12-29T02:40:20.494Z,99.90
2017-12-29T02:42:48.387Z,99.90
2017-12-29T02:45:16.316Z,99.90
2017-12-29T02:47:44.198Z,99.90
2017-12-29T02:50:12.120Z,99.90
2017-12-29T02:52:39.996Z,99.90
2017-12-29T02:55:07.923Z,99.90
2017-12-29T02:57:35.807Z,99.90
2017-12-29T03:00:04.596Z,99.90
2017-12-29T03:02:33.254Z,99.90
2017-12-29T03:05:01.193Z,99.90
2017-12-29T03:07:33.076Z,99.90
2017-12-29T03:10:01.011Z,99.90
2017-12-29T03:12:28.882Z,99.90
2017-12-29T03:14:56.813Z,99.90
2017-12-29T03:17:24.687Z,99.90
2017-12-29T03:19:52.597Z,99.90
2017-12-29T03:22:20.504Z,99.90
2017-12-29T03:24:48.436Z,99.90
2017-12-29T03:27:16.307Z,99.90
2017-12-29T03:29:44.239Z,99.90
2017-12-29T03:32:12.876Z,99.90
2017-12-29T03:34:40.792Z,99.90
2017-12-29T03:37:08.667Z,99.90
2017-12-29T03:39:36.603Z,99.90
2017-12-29T03:42:04.483Z,99.90
2017-12-29T03:44:32.403Z,99.90
2017-12-29T03:47:00.313Z,99.90
2017-12-29T03:49:29.352Z,99.90
2017-12-29T03:51:57.239Z,99.90
2017-12-29T03:54:25.164Z,99.90
2017-12-29T03:56:53.098Z,99.90
2017-12-29T03:59:20.984Z,99.90
2017-12-29T04:01:48.903Z,99.90
2017-12-29T04:04:16.829Z,99.90
2017-12-29T04:06:45.661Z,99.90
2017-12-29T04:09:13.587Z,99.90
2017-12-29T04:11:41.467Z,99.90
2017-12-29T04:14:09.338Z,99.90
2017-12-29T04:16:37.269Z,99.90
2017-12-29T04:19:05.138Z,99.90
2017-12-29T04:21:33.078Z,99.90
2017-12-29T04:24:01.000Z,99.90
2017-12-29T04:26:28.923Z,99.90
2017-12-29T04:28:56.807Z,99.90
2017-12-29T04:31:24.747Z,99.90
2017-12-29T04:33:52.613Z,99.90
2017-12-29T04:36:20.554Z,99.90
2017-12-29T04:38:48.441Z,99.90
2017-12-29T04:41:16.365Z,99.90
2017-12-29T04:43:44.231Z,99.90
2017-12-29T04:46:12.165Z,99.90
2017-12-29T04:48:40.048Z,99.90
2017-12-29T04:51:07.990Z,99.90
2017-12-29T04:53:35.877Z,99.90
2017-12-29T04:56:03.815Z,99.90
2017-12-29T04:58:31.699Z,99.90
2017-12-29T05:00:59.625Z,99.90
2017-12-29T05:03:27.504Z,99.90
2017-12-29T05:05:55.430Z,99.90
2017-12-29T05:08:23.306Z,99.90
2017-12-29T05:10:51.253Z,99.90
2017-12-29T05:13:19.140Z,99.90
2017-12-29T05:15:47.081Z,99.90
2017-12-29T05:18:14.954Z,99.90
2017-12-29T05:20:42.904Z,99.90
2017-12-29T05:23:11.552Z,99.90
2017-12-29T05:25:39.498Z,99.90
2017-12-29T05:28:08.628Z,99.90
2017-12-29T05:30:36.580Z,99.90
2017-12-29T05:33:04.471Z,99.90
2017-12-29T05:35:32.408Z,99.90
2017-12-29T05:38:00.271Z,99.90
2017-12-29T05:40:28.200Z,99.90
2017-12-29T05:42:56.069Z,99.90
2017-12-29T05:45:24.021Z,99.90
2017-12-29T05:47:51.895Z,99.90
2017-12-29T05:50:19.842Z,99.90
2017-12-29T05:52:47.731Z,99.90
2017-12-29T05:55:16.450Z,99.90
2017-12-29T05:57:44.339Z,99.90
2017-12-29T06:00:12.298Z,99.90
2017-12-29T06:02:40.194Z,99.90
2017-12-29T06:05:08.091Z,99.90
2017-12-29T06:07:36.034Z,99.90
2017-12-29T06:10:03.920Z,99.90
2017-12-29T06:12:31.882Z,99.90
2017-12-29T06:14:59.763Z,99.90
2017-12-29T06:17:27.699Z,99.90
2017-12-29T06:19:55.582Z,99.90
2017-12-29T06:22:23.516Z,99.90
2017-12-29T06:24:51.409Z,99.90
2017-12-29T06:27:19.339Z,99.90
2017-12-29T06:29:47.223Z,99.90
2017-12-29T06:32:15.146Z,99.90
2017-12-29T06:34:43.032Z,99.90
2017-12-29T06:37:10.966Z,99.90
2017-12-29T06:39:38.855Z,99.90
2017-12-29T06:42:06.789Z,99.90
2017-12-29T06:44:34.669Z,99.90
2017-12-29T06:47:02.594Z,99.90
2017-12-29T06:49:30.479Z,99.90
2017-12-29T06:51:58.412Z,99.90
2017-12-29T06:54:26.294Z,99.90
2017-12-29T06:56:54.248Z,99.90
2017-12-29T06:59:22.182Z,99.90
2017-12-29T07:01:50.122Z,99.90
2017-12-29T07:04:18.053Z,99.90
2017-12-29T07:06:46.009Z,99.90
2017-12-29T07:09:13.938Z,99.90
2017-12-29T07:11:41.839Z,99.90
2017-12-29T07:14:09.776Z,99.90
2017-12-29T07:16:37.648Z,99.90
2017-12-29T07:19:05.575Z,99.90
2017-12-29T07:21:33.623Z,99.90
2017-12-29T07:24:01.558Z,99.90
2017-12-29T07:26:29.564Z,99.90
2017-12-29T07:28:57.491Z,99.90
2017-12-29T07:31:25.381Z,99.90
2017-12-29T07:33:53.332Z,99.90
2017-12-29T07:36:21.240Z,99.90
2017-12-29T07:38:49.224Z,99.90
2017-12-29T07:41:17.120Z,99.90
2017-12-29T07:43:45.066Z,99.90
2017-12-29T07:46:12.960Z,99.90
2017-12-29T07:48:40.901Z,99.90
2017-12-29T07:51:08.779Z,99.90
2017-12-29T07:53:37.471Z,99.90
2017-12-29T07:56:05.510Z,99.90
2017-12-29T07:58:33.450Z,99.90
2017-12-29T08:01:01.331Z,99.90
2017-12-29T08:03:29.270Z,99.90
2017-12-29T08:05:57.166Z,99.90
2017-12-29T08:08:25.104Z,99.90
2017-12-29T08:10:53.041Z,99.90
2017-12-29T08:13:21.700Z,99.90
2017-12-29T08:15:49.632Z,99.90
2017-12-29T08:18:17.526Z,99.90
2017-12-29T08:20:45.463Z,99.90
2017-12-29T08:23:13.347Z,99.90
2017-12-29T08:25:41.286Z,99.90
2017-12-29T08:28:09.168Z,99.90
2017-12-29T08:30:37.104Z,99.90
2017-12-29T08:33:05.000Z,99.90
2017-12-29T08:35:32.932Z,99.90
2017-12-29T08:38:00.804Z,99.90
2017-12-29T08:40:28.746Z,99.90
2017-12-29T08:42:56.623Z,99.90
2017-12-29T08:45:24.631Z,99.90
2017-12-29T08:47:52.574Z,99.90
2017-12-29T08:50:20.505Z,99.90
2017-12-29T08:52:48.444Z,99.90
2017-12-29T08:55:17.140Z,99.90
2017-12-29T08:57:45.011Z,99.90
2017-12-29T09:00:12.938Z,99.90
2017-12-29T09:02:40.816Z,99.90
2017-12-29T09:05:08.730Z,99.90
2017-12-29T09:07:36.602Z,99.90
2017-12-29T09:10:04.540Z,99.90
2017-12-29T09:12:32.414Z,99.90
2017-12-29T09:15:01.061Z,99.90
2017-12-29T09:17:31.021Z,99.90
2017-12-29T09:19:58.878Z,99.90
2017-12-29T09:22:26.804Z,99.90
2017-12-29T09:24:54.682Z,99.90
2017-12-29T09:27:22.701Z,99.90
2017-12-29T09:29:50.588Z,99.90
2017-12-29T09:32:19.679Z,99.90
2017-12-29T09:34:47.555Z,99.90
2017-12-29T09:37:15.480Z,99.90
2017-12-29T09:39:43.650Z,99.90
2017-12-29T09:42:11.625Z,99.70
2017-12-29T09:44:39.592Z,99.40
2017-12-29T09:47:07.588Z,99.30
2017-12-29T09:49:35.466Z,99.30
2017-12-29T09:52:03.439Z,99.30
2017-12-29T09:54:31.374Z,99.20
2017-12-29T09:56:59.326Z,99.60
2017-12-29T09:59:27.191Z,98.60
2017-12-29T10:01:56.480Z,98.50
2017-12-29T10:04:24.447Z,98.60
2017-12-29T10:06:52.425Z,98.60
2017-12-29T10:09:20.364Z,98.10
2017-12-29T10:11:48.467Z,97.60
2017-12-29T10:14:16.384Z,97.40
2017-12-29T10:16:44.461Z,97.50
2017-12-29T10:19:12.402Z,97.20
2017-12-29T10:21:40.332Z,97.20
2017-12-29T10:24:12.352Z,97.70
2017-12-29T10:26:42.497Z,97.50
2017-12-29T10:29:10.483Z,97.40
2017-12-29T10:31:39.351Z,97.80
2017-12-29T10:34:07.279Z,97.80
2017-12-29T10:36:41.086Z,97.70
2017-12-29T10:39:09.247Z,97.90
2017-12-29T10:41:37.142Z,97.70
2017-12-29T10:44:05.835Z,97.40
2017-12-29T10:46:34.487Z,97.40
2017-12-29T10:49:02.481Z,97.40
2017-12-29T10:51:30.355Z,97.50
2017-12-29T10:53:58.351Z,97.60
2017-12-29T10:56:26.227Z,97.80
2017-12-29T10:58:54.160Z,97.80
2017-12-29T11:01:22.074Z,97.40
2017-12-29T11:03:50.032Z,97.10
2017-12-29T11:06:21.267Z,97.00
2017-12-29T11:08:50.956Z,97.30
2017-12-29T11:11:18.851Z,97.10
2017-12-29T11:13:48.810Z,96.80
2017-12-29T11:16:16.687Z,96.70
2017-12-29T11:18:44.629Z,96.80
2017-12-29T11:21:12.569Z,96.50
2017-12-29T11:23:40.485Z,96.10
2017-12-29T11:26:08.426Z,96.30
2017-12-29T11:28:36.338Z,96.60
2017-12-29T11:31:04.299Z,96.20
2017-12-29T11:33:32.185Z,96.20
2017-12-29T11:36:00.343Z,96.50
2017-12-29T11:38:28.235Z,95.90
2017-12-29T11:40:56.199Z,96.20
2017-12-29T11:43:24.087Z,96.10
2017-12-29T11:45:52.822Z,96.00
2017-12-29T11:48:20.716Z,96.00
2017-12-29T11:50:48.669Z,96.10
2017-12-29T11:53:17.768Z,96.10
2017-12-29T11:55:45.715Z,96.00
2017-12-29T11:58:13.603Z,96.30
2017-12-29T12:00:41.565Z,96.20
2017-12-29T12:03:09.456Z,96.00
2017-12-29T12:05:38.360Z,95.70
2017-12-29T12:08:06.263Z,95.70
2017-12-29T12:10:34.200Z,95.90
2017-12-29T12:13:02.099Z,95.10
2017-12-29T12:15:30.032Z,94.80
2017-12-29T12:17:57.956Z,95.10
2017-12-29T12:20:25.940Z,95.10
2017-12-29T12:22:53.827Z,95.10
2017-12-29T12:25:21.757Z,95.30
2017-12-29T12:27:49.809Z,95.30
2017-12-29T12:30:18.524Z,96.00
2017-12-29T12:32:46.408Z,96.00
2017-12-29T12:35:14.293Z,95.70
2017-12-29T12:37:42.239Z,95.40
2017-12-29T12:40:10.130Z,95.60
2017-12-29T12:42:38.088Z,95.30
2017-12-29T12:45:05.997Z,95.90
2017-12-29T12:47:34.744Z,95.50
2017-12-29T12:50:02.649Z,95.40
2017-12-29T12:52:30.585Z,95.70
2017-12-29T12:54:58.462Z,95.90
2017-12-29T12:57:30.978Z,95.80
2017-12-29T12:59:59.696Z,95.70
2017-12-29T13:02:27.921Z,95.70
2017-12-29T13:04:55.964Z,95.70
2017-12-29T13:07:23.923Z,96.30
2017-12-29T13:09:51.830Z,96.60
2017-12-29T13:12:19.813Z,96.70
2017-12-29T13:14:47.783Z,97.60
2017-12-29T13:17:17.735Z,98.00
2017-12-29T13:19:45.612Z,98.80
2017-12-29T13:22:14.175Z,99.20
2017-12-29T13:24:42.896Z,99.80
2017-12-29T13:27:11.281Z,99.90
2017-12-29T13:29:39.220Z,99.90
2017-12-29T13:32:08.005Z,99.90
2017-12-29T13:34:35.883Z,99.80
2017-12-29T13:37:04.232Z,99.90
2017-12-29T13:39:32.744Z,99.90
2017-12-29T13:42:01.766Z,99.90
2017-12-29T13:44:29.688Z,99.90
2017-12-29T13:46:57.757Z,99.90
2017-12-29T13:49:26.565Z,99.90
2017-12-29T13:51:54.479Z,99.90
2017-12-29T13:54:26.029Z,99.90
2017-12-29T13:56:54.142Z,99.90
2017-12-29T13:59:22.864Z,99.90
2017-12-29T14:01:50.809Z,99.90
2017-12-29T14:04:19.811Z,99.90
2017-12-29T14:06:47.849Z,99.90
2017-12-29T14:09:15.895Z,99.90
2017-12-29T14:11:43.932Z,99.90
2017-12-29T14:14:12.250Z,99.90
2017-12-29T14:16:40.147Z,99.90
2017-12-29T14:19:08.101Z,99.90
2017-12-29T14:21:35.978Z,99.90
2017-12-29T14:24:03.943Z,99.90
2017-12-29T14:26:31.907Z,99.90
2017-12-29T14:28:59.856Z,99.90
2017-12-29T14:31:27.791Z,99.90
2017-12-29T14:33:55.680Z,99.90
2017-12-29T14:36:23.617Z,99.90
2017-12-29T14:38:52.307Z,99.90
2017-12-29T14:41:20.200Z,99.90
2017-12-29T14:43:48.141Z,99.90
2017-12-29T14:46:16.800Z,99.90
2017-12-29T14:48:44.700Z,99.90
2017-12-29T14:51:12.631Z,99.90
2017-12-29T14:53:40.514Z,99.90
2017-12-29T14:56:08.525Z,99.90
2017-12-29T14:58:36.453Z,99.90
2017-12-29T15:01:04.391Z,99.90
2017-12-29T15:03:32.336Z,99.90
2017-12-29T15:06:00.320Z,99.90
2017-12-29T15:08:28.205Z,99.90
2017-12-29T15:10:56.132Z,99.90
2017-12-29T15:13:24.017Z,99.90
2017-12-29T15:15:51.996Z,99.90
2017-12-29T15:18:19.991Z,99.90
2017-12-29T15:20:47.932Z,99.90
2017-12-29T15:23:16.626Z,99.90
2017-12-29T15:25:44.554Z,99.90
2017-12-29T15:28:12.441Z,99.90
2017-12-29T15:30:41.251Z,99.90
2017-12-29T15:33:09.148Z,99.90
2017-12-29T15:35:37.081Z,99.90
2017-12-29T15:38:04.967Z,99.90
2017-12-29T15:40:32.892Z,99.90
2017-12-29T15:43:01.537Z,99.90
2017-12-29T15:45:29.617Z,99.90
2017-12-29T15:47:57.694Z,99.90
2017-12-29T15:50:25.572Z,99.90
2017-12-29T15:52:53.568Z,99.90
2017-12-29T15:55:21.452Z,99.90
2017-12-29T15:57:49.373Z,99.90
2017-12-29T16:00:17.261Z,99.90
2017-12-29T16:02:45.218Z,99.90
2017-12-29T16:05:13.099Z,99.90
2017-12-29T16:07:41.011Z,99.90
2017-12-29T16:10:09.660Z,99.90
2017-12-29T16:12:37.608Z,99.90
2017-12-29T16:15:05.485Z,99.90
2017-12-29T16:17:35.527Z,99.90
2017-12-29T16:20:03.410Z,99.90
2017-12-29T16:22:31.327Z,99.90
2017-12-29T16:24:59.215Z,99.90
2017-12-29T16:27:27.139Z,99.90
2017-12-29T16:29:55.371Z,99.90
2017-12-29T16:32:24.047Z,99.90
2017-12-29T16:34:51.920Z,99.90
2017-12-29T16:37:19.836Z,99.90
2017-12-29T16:39:47.790Z,99.90
2017-12-29T16:42:15.846Z,99.90
2017-12-29T16:44:43.728Z,99.90
2017-12-29T16:47:11.774Z,99.90
2017-12-29T16:49:40.391Z,99.90
2017-12-29T16:52:08.309Z,99.90
2017-12-29T16:54:36.211Z,99.90
2017-12-29T16:57:04.134Z,99.90
2017-12-29T16:59:32.001Z,99.90
2017-12-29T17:01:59.929Z,99.90
2017-12-29T17:04:27.851Z,99.90
2017-12-29T17:06:55.779Z,99.90
2017-12-29T17:09:23.636Z,99.90
2017-12-29T17:11:51.555Z,99.90
2017-12-29T17:14:19.480Z,99.90
2017-12-29T17:16:52.955Z,99.90
2017-12-29T17:19:20.837Z,99.90
2017-12-29T17:21:48.768Z,99.90
2017-12-29T17:24:16.618Z,99.90
2017-12-29T17:26:44.530Z,99.90
2017-12-29T17:29:12.404Z,99.90
2017-12-29T17:31:40.350Z,99.90
2017-12-29T17:34:08.229Z,99.90
2017-12-29T17:36:38.956Z,99.90
2017-12-29T17:39:06.904Z,99.90
2017-12-29T17:41:34.831Z,99.90
2017-12-29T17:44:02.708Z,99.90
2017-12-29T17:46:30.762Z,99.90
2017-12-29T17:48:58.785Z,99.90
2017-12-29T17:51:26.696Z,99.90
2017-12-29T17:53:54.625Z,99.90
2017-12-29T17:56:22.486Z,99.90
2017-12-29T17:58:50.401Z,99.90
2017-12-29T18:01:18.277Z,99.90
2017-12-29T18:03:46.197Z,99.90
2017-12-29T18:06:14.113Z,99.90
2017-12-29T18:08:42.071Z,99.90
2017-12-29T18:11:10.009Z,99.90
2017-12-29T18:13:37.937Z,99.90
2017-12-29T18:16:09.352Z,99.90
2017-12-29T18:18:38.806Z,99.90
2017-12-29T18:21:06.941Z,99.90
2017-12-29T18:23:35.760Z,99.90
2017-12-29T18:26:03.655Z,99.90
2017-12-29T18:28:31.658Z,99.90
2017-12-29T18:31:00.322Z,99.90
2017-12-29T18:33:28.325Z,99.90
2017-12-29T18:35:56.257Z,99.90
2017-12-29T18:38:24.214Z,99.90
2017-12-29T18:40:52.134Z,99.90
2017-12-29T18:43:20.795Z,99.90
2017-12-29T18:45:48.708Z,99.90
2017-12-29T18:48:16.652Z,99.90
2017-12-29T18:50:44.556Z,99.90
2017-12-29T18:53:12.520Z,99.90
2017-12-29T18:55:40.412Z,99.90
2017-12-29T18:58:08.350Z,99.90
2017-12-29T19:00:36.259Z,99.90
2017-12-29T19:03:04.228Z,99.90
2017-12-29T19:05:32.136Z,99.90
2017-12-29T19:08:06.437Z,99.90
2017-12-29T19:10:34.342Z,99.90
2017-12-29T19:13:02.301Z,99.90
2017-12-29T19:15:30.196Z,99.90
2017-12-29T19:17:58.154Z,99.90
2017-12-29T19:20:26.047Z,99.90
2017-12-29T19:22:54.090Z,99.90
2017-12-29T19:25:22.086Z,99.90
2017-12-29T19:27:50.046Z,99.90
2017-12-29T19:30:18.081Z,99.90
2017-12-29T19:32:46.029Z,99.90
2017-12-29T19:35:14.025Z,99.90
2017-12-29T19:37:42.101Z,99.90
2017-12-29T19:40:10.108Z,99.90
2017-12-29T19:42:38.068Z,99.90
2017-12-29T19:45:06.035Z,99.90
2017-12-29T19:47:34.037Z,99.90
2017-12-29T19:50:02.058Z,99.90
2017-12-29T19:52:30.058Z,99.90
2017-12-29T19:54:58.990Z,99.90
2017-12-29T19:57:29.664Z,99.90
2017-12-29T19:59:57.852Z,99.90
2017-12-29T20:02:28.556Z,99.90
2017-12-29T20:04:56.719Z,99.90
2017-12-29T20:07:24.777Z,99.90
2017-12-29T20:09:54.455Z,99.90
2017-12-29T20:12:23.357Z,99.90
2017-12-29T20:14:51.549Z,99.90
2017-12-29T20:17:19.594Z,99.90
2017-12-29T20:19:47.671Z,99.90
2017-12-29T20:22:15.763Z,99.90
2017-12-29T20:24:43.846Z,99.90
2017-12-29T20:27:24.625Z,99.90
2017-12-29T20:29:52.735Z,99.90
2017-12-29T20:32:20.863Z,99.90
2017-12-29T20:34:49.034Z,99.90
2017-12-29T20:37:17.886Z,99.90
2017-12-29T20:39:45.979Z,99.90
2017-12-29T20:42:13.973Z,99.90
2017-12-29T20:44:41.986Z,99.90
2017-12-29T20:47:10.199Z,99.90
2017-12-29T20:49:39.338Z,99.90
2017-12-29T20:52:07.411Z,99.90
2017-12-29T20:54:35.460Z,99.90
2017-12-29T20:57:04.789Z,99.90
2017-12-29T20:59:32.794Z,99.90
2017-12-29T21:02:00.890Z,99.90
2017-12-29T21:04:28.933Z,99.90
2017-12-29T21:06:56.935Z,99.90
2017-12-29T21:09:24.924Z,99.90
2017-12-29T21:11:58.791Z,99.90
2017-12-29T21:14:26.908Z,99.90
2017-12-29T21:16:55.586Z,99.90
2017-12-29T21:19:24.313Z,99.90
2017-12-29T21:21:52.314Z,99.90
2017-12-29T21:24:20.295Z,99.90
2017-12-29T21:26:48.309Z,99.90
2017-12-29T21:29:17.085Z,99.90
2017-12-29T21:31:45.126Z,99.90
2017-12-29T21:34:13.124Z,99.90
2017-12-29T21:36:41.116Z,99.90
2017-12-29T21:39:09.070Z,99.90
2017-12-29T21:41:37.083Z,99.90
2017-12-29T21:44:05.009Z,99.90
2017-12-29T21:46:33.193Z,99.90
2017-12-29T21:49:01.151Z,99.90
2017-12-29T21:51:29.120Z,99.90
2017-12-29T21:53:57.118Z,99.90
2017-12-29T21:56:25.134Z,99.90
2017-12-29T21:58:53.124Z,99.90
2017-12-29T22:01:21.076Z,99.90
2017-12-29T22:03:49.131Z,99.90
2017-12-29T22:06:17.614Z,99.90
2017-12-29T22:08:46.317Z,99.90
2017-12-29T22:11:14.339Z,99.90
2017-12-29T22:13:43.118Z,99.90
2017-12-29T22:16:15.085Z,99.90
2017-12-29T22:18:43.062Z,99.90
2017-12-29T22:21:11.002Z,99.90
2017-12-29T22:23:39.035Z,99.90
2017-12-29T22:26:06.914Z,99.90
2017-12-29T22:28:36.867Z,99.90
2017-12-29T22:31:04.791Z,99.90
2017-12-29T22:33:32.801Z,99.90
2017-12-29T22:36:13.812Z,99.90
2017-12-29T22:38:41.800Z,99.90
2017-12-29T22:41:09.725Z,99.90
2017-12-29T22:43:37.712Z,99.90
2017-12-29T22:46:05.722Z,99.90
2017-12-29T22:48:33.712Z,99.90
2017-12-29T22:51:01.654Z,99.90
2017-12-29T22:53:30.413Z,99.90
2017-12-29T22:55:59.120Z,99.90
2017-12-29T22:58:27.114Z,99.90
2017-12-29T23:00:55.054Z,99.90
2017-12-29T23:03:22.977Z,99.90
2017-12-29T23:05:51.164Z,99.90
2017-12-29T23:08:19.069Z,99.90
2017-12-29T23:10:47.033Z,99.90
2017-12-29T23:13:14.931Z,99.90
2017-12-29T23:15:42.936Z,99.90
2017-12-29T23:18:10.888Z,99.90
2017-12-29T23:20:38.860Z,99.90
2017-12-29T23:23:06.775Z,99.90
2017-12-29T23:25:34.844Z,99.90
2017-12-29T23:28:05.579Z,99.90
2017-12-29T23:30:34.319Z,99.90
2017-12-29T23:33:02.233Z,99.90
2017-12-29T23:35:30.181Z,99.90
2017-12-29T23:37:58.097Z,99.90
2017-12-29T23:40:26.074Z,99.90
2017-12-29T23:42:54.081Z,99.90
2017-12-29T23:45:22.066Z,99.90
2017-12-29T23:47:49.954Z,99.90
2017-12-29T23:50:18.674Z,99.90
2017-12-29T23:52:46.577Z,99.90
2017-12-29T23:55:14.547Z,99.90
2017-12-29T23:57:42.453Z,99.90
